Wetterdaten: Mittwoch, 10.02.2010
Datum Zeit Temp. A. Feuchte A. Luftdruck Regen Wind Richtung Richtung Sonnenschein UV Solar Windben
10.02.2010 00:00 -4,8 C 84 % 1006,9 hPa 0,0 mm 0,0 km/h (0 Bft) N 360 0 min 0 UV-I 0 W/m 3,2 km/h (1 Bft)
10.02.2010 00:10 -4,8 C 84 % 1007,0 hPa 0,0 mm 0,0 km/h (0 Bft) N 360 0 min 0 UV-I 0 W/m 3,2 km/h (1 Bft)
10.02.2010 00:20 -4,8 C 84 % 1006,9 hPa 0,0 mm 0,0 km/h (0 Bft) N 360 0 min 0 UV-I 0 W/m 4,8 km/h (1 Bft)
10.02.2010 00:30 -4,9 C 84 % 1006,9 hPa 0,0 mm 0,0 km/h (0 Bft) N 360 0 min 0 UV-I 0 W/m 3,2 km/h (1 Bft)
10.02.2010 00:40 -4,9 C 84 % 1006,9 hPa 0,0 mm 0,0 km/h (0 Bft) N 360 0 min 0 UV-I 0 W/m 4,8 km/h (1 Bft)
10.02.2010 00:50 -4,9 C 85 % 1006,8 hPa 0,0 mm 0,0 km/h (0 Bft) N-NW 337 0 min 0 UV-I 0 W/m 3,2 km/h (1 Bft)
10.02.2010 01:00 -5,0 C 85 % 1006,9 hPa 0,0 mm 0,0 km/h (0 Bft) N 0 0 min 0 UV-I 0 W/m 0,0 km/h (0 Bft)
10.02.2010 01:10 -5,1 C 85 % 1006,8 hPa 0,0 mm 0,0 km/h (0 Bft) N-NW 337 0 min 0 UV-I 0 W/m 3,2 km/h (1 Bft)
10.02.2010 01:20 -5,1 C 85 % 1006,8 hPa 0,0 mm 0,0 km/h (0 Bft) N-NW 337 0 min 0 UV-I 0 W/m 1,6 km/h (1 Bft)
10.02.2010 01:30 -5,2 C 85 % 1006,8 hPa 0,0 mm 0,0 km/h (0 Bft) N-NW 337 0 min 0 UV-I 0 W/m 1,6 km/h (1 Bft)
10.02.2010 01:40 -5,3 C 85 % 1006,6 hPa 0,0 mm 0,0 km/h (0 Bft) N-NW 337 0 min 0 UV-I 0 W/m 1,6 km/h (1 Bft)
10.02.2010 01:50 -5,3 C 85 % 1006,6 hPa 0,0 mm 0,0 km/h (0 Bft) N-NW 337 0 min 0 UV-I 0 W/m 1,6 km/h (1 Bft)
10.02.2010 02:00 -5,3 C 85 % 1006,6 hPa 0,0 mm 0,0 km/h (0 Bft) N 0 0 min 0 UV-I 0 W/m 0,0 km/h (0 Bft)
10.02.2010 02:10 -5,4 C 85 % 1006,7 hPa 0,0 mm 0,0 km/h (0 Bft) N-NW 337 0 min 0 UV-I 0 W/m 1,6 km/h (1 Bft)
10.02.2010 02:20 -5,4 C 85 % 1006,6 hPa 0,0 mm 0,0 km/h (0 Bft) N-NW 337 0 min 0 UV-I 0 W/m 1,6 km/h (1 Bft)
10.02.2010 02:30 -5,4 C 85 % 1006,7 hPa 0,0 mm 0,0 km/h (0 Bft) N-NW 337 0 min 0 UV-I 0 W/m 1,6 km/h (1 Bft)
10.02.2010 02:40 -5,5 C 85 % 1006,6 hPa 0,0 mm 0,0 km/h (0 Bft) N-NW 337 0 min 0 UV-I 0 W/m 1,6 km/h (1 Bft)
10.02.2010 02:50 -5,5 C 85 % 1006,6 hPa 0,0 mm 0,0 km/h (0 Bft) N 0 0 min 0 UV-I 0 W/m 0,0 km/h (0 Bft)
10.02.2010 03:00 -5,5 C 86 % 1006,6 hPa 0,0 mm 0,0 km/h (0 Bft) N 0 0 min 0 UV-I 0 W/m 0,0 km/h (0 Bft)
10.02.2010 03:10 -5,5 C 86 % 1006,7 hPa 0,0 mm 0,0 km/h (0 Bft) N 0 0 min 0 UV-I 0 W/m 0,0 km/h (0 Bft)
10.02.2010 03:20 -5,5 C 86 % 1006,6 hPa 0,0 mm 0,0 km/h (0 Bft) N-NW 337 0 min 0 UV-I 0 W/m 1,6 km/h (1 Bft)
10.02.2010 03:30 -5,5 C 86 % 1006,6 hPa 0,0 mm 0,0 km/h (0 Bft) N 0 0 min 0 UV-I 0 W/m 0,0 km/h (0 Bft)
10.02.2010 03:40 -5,5 C 86 % 1006,5 hPa 0,0 mm 0,0 km/h (0 Bft) N-NW 337 0 min 0 UV-I 0 W/m 1,6 km/h (1 Bft)
10.02.2010 03:50 -5,5 C 86 % 1006,4 hPa 0,0 mm 0,0 km/h (0 Bft) N-NW 337 0 min 0 UV-I 0 W/m 1,6 km/h (1 Bft)
10.02.2010 04:00 -5,5 C 86 % 1006,5 hPa 0,0 mm 0,0 km/h (0 Bft) N-NW 337 0 min 0 UV-I 0 W/m 1,6 km/h (1 Bft)
10.02.2010 04:10 -5,4 C 86 % 1006,5 hPa 0,0 mm 0,0 km/h (0 Bft) N 0 0 min 0 UV-I 0 W/m 0,0 km/h (0 Bft)
10.02.2010 04:20 -5,4 C 86 % 1006,5 hPa 0,0 mm 0,0 km/h (0 Bft) N-NW 337 0 min 0 UV-I 0 W/m 1,6 km/h (1 Bft)
10.02.2010 04:30 -5,4 C 86 % 1006,5 hPa 0,0 mm 0,0 km/h (0 Bft) N-NW 337 0 min 0 UV-I 0 W/m 1,6 km/h (1 Bft)
10.02.2010 04:40 -5,4 C 87 % 1006,6 hPa 0,0 mm 0,0 km/h (0 Bft) N-NW 337 0 min 0 UV-I 0 W/m 1,6 km/h (1 Bft)
10.02.2010 04:50 -5,4 C 86 % 1006,6 hPa 0,0 mm 0,0 km/h (0 Bft) N-NW 337 0 min 0 UV-I 0 W/m 1,6 km/h (1 Bft)
10.02.2010 05:00 -5,4 C 87 % 1006,6 hPa 0,0 mm 0,0 km/h (0 Bft) N 0 0 min 0 UV-I 0 W/m 0,0 km/h (0 Bft)
10.02.2010 05:10 -5,4 C 87 % 1006,6 hPa 0,0 mm 0,0 km/h (0 Bft) N-NW 337 0 min 0 UV-I 0 W/m 1,6 km/h (1 Bft)
10.02.2010 05:20 -5,4 C 87 % 1006,6 hPa 0,0 mm 0,0 km/h (0 Bft) N-NW 337 0 min 0 UV-I 0 W/m 1,6 km/h (1 Bft)
10.02.2010 05:30 -5,3 C 87 % 1006,6 hPa 0,0 mm 0,0 km/h (0 Bft) N-NW 337 0 min 0 UV-I 0 W/m 1,6 km/h (1 Bft)
10.02.2010 05:40 -5,3 C 87 % 1006,6 hPa 0,0 mm 0,0 km/h (0 Bft) N 0 0 min 0 UV-I 0 W/m 0,0 km/h (0 Bft)
10.02.2010 05:50 -5,3 C 87 % 1006,6 hPa 0,0 mm 0,0 km/h (0 Bft) N-NW 337 0 min 0 UV-I 0 W/m 1,6 km/h (1 Bft)
10.02.2010 06:00 -5,3 C 87 % 1006,5 hPa 0,0 mm 0,0 km/h (0 Bft) N-NW 337 0 min 0 UV-I 0 W/m 1,6 km/h (1 Bft)
10.02.2010 06:10 -5,3 C 87 % 1006,5 hPa 0,0 mm 0,0 km/h (0 Bft) N-NW 337 0 min 0 UV-I 0 W/m 1,6 km/h (1 Bft)
10.02.2010 06:20 -5,3 C 87 % 1006,5 hPa 0,0 mm 0,0 km/h (0 Bft) N-NW 337 0 min 0 UV-I 0 W/m 3,2 km/h (1 Bft)
10.02.2010 06:30 -5,2 C 87 % 1006,6 hPa 0,0 mm 0,0 km/h (0 Bft) N-NW 337 0 min 0 UV-I 0 W/m 3,2 km/h (1 Bft)
10.02.2010 06:40 -5,2 C 88 % 1006,6 hPa 0,0 mm 0,0 km/h (0 Bft) N-NW 337 0 min 0 UV-I 0 W/m 1,6 km/h (1 Bft)
10.02.2010 06:50 -5,2 C 88 % 1006,6 hPa 0,0 mm 0,0 km/h (0 Bft) N-NW 337 0 min 0 UV-I 0 W/m 1,6 km/h (1 Bft)
10.02.2010 07:00 -5,2 C 88 % 1006,6 hPa 0,0 mm 0,0 km/h (0 Bft) N-NW 337 0 min 0 UV-I 0 W/m 1,6 km/h (1 Bft)
10.02.2010 07:10 -5,2 C 88 % 1006,8 hPa 0,0 mm 0,0 km/h (0 Bft) N-NW 337 0 min 0 UV-I 0 W/m 1,6 km/h (1 Bft)
10.02.2010 07:20 -5,2 C 88 % 1006,8 hPa 0,0 mm 0,0 km/h (0 Bft) N-NW 337 0 min 0 UV-I 0 W/m 1,6 km/h (1 Bft)
10.02.2010 07:30 -5,2 C 88 % 1006,9 hPa 0,0 mm 0,0 km/h (0 Bft) N-NW 337 0 min 0 UV-I 0 W/m 1,6 km/h (1 Bft)
10.02.2010 07:40 -5,2 C 88 % 1007,0 hPa 0,0 mm 0,0 km/h (0 Bft) N-NW 337 0 min 0 UV-I 0 W/m 1,6 km/h (1 Bft)
10.02.2010 07:50 -5,2 C 88 % 1007,0 hPa 0,0 mm 0,0 km/h (0 Bft) N-NW 337 0 min 0 UV-I 0 W/m 1,6 km/h (1 Bft)
10.02.2010 08:00 -5,2 C 88 % 1007,1 hPa 0,0 mm 0,0 km/h (0 Bft) N-NW 341 0 min 0 UV-I 0 W/m 0,0 km/h (0 Bft)
10.02.2010 08:10 -5,2 C 88 % 1007,2 hPa 0,0 mm 0,0 km/h (0 Bft) N-NW 337 0 min 0 UV-I 5 W/m 1,6 km/h (1 Bft)
10.02.2010 08:20 -5,2 C 88 % 1007,2 hPa 0,0 mm 0,0 km/h (0 Bft) N-NW 337 0 min 0 UV-I 7 W/m 1,6 km/h (1 Bft)
10.02.2010 08:30 -5,1 C 88 % 1007,3 hPa 0,0 mm 0,0 km/h (0 Bft) N-NW 337 0 min 0 UV-I 11 W/m 4,8 km/h (1 Bft)
10.02.2010 08:40 -5,1 C 88 % 1007,3 hPa 0,0 mm 0,0 km/h (0 Bft) N-NW 337 0 min 0 UV-I 14 W/m 3,2 km/h (1 Bft)
10.02.2010 08:50 -5,0 C 88 % 1007,4 hPa 0,0 mm 0,0 km/h (0 Bft) N-NW 337 0 min 0 UV-I 18 W/m 3,2 km/h (1 Bft)
10.02.2010 09:00 -4,9 C 89 % 1007,5 hPa 0,0 mm 0,0 km/h (0 Bft) N-NW 337 0 min 0 UV-I 23 W/m 3,2 km/h (1 Bft)
10.02.2010 09:10 -4,9 C 89 % 1007,6 hPa 0,0 mm 0,0 km/h (0 Bft) N-NW 337 0 min 0 UV-I 26 W/m 1,6 km/h (1 Bft)
10.02.2010 09:20 -4,8 C 89 % 1007,7 hPa 0,0 mm 0,0 km/h (0 Bft) N-NW 337 0 min 0 UV-I 32 W/m 3,2 km/h (1 Bft)
10.02.2010 09:30 -4,7 C 89 % 1007,8 hPa 0,0 mm 0,0 km/h (0 Bft) N-NW 337 0 min 0 UV-I 40 W/m 3,2 km/h (1 Bft)
10.02.2010 09:40 -4,6 C 89 % 1007,8 hPa 0,0 mm 0,0 km/h (0 Bft) N-NW 337 0 min 0 UV-I 46 W/m 3,2 km/h (1 Bft)
10.02.2010 09:50 -4,4 C 89 % 1007,9 hPa 0,0 mm 0,0 km/h (0 Bft) N-NO 22 0 min 0 UV-I 49 W/m 4,8 km/h (1 Bft)
10.02.2010 10:00 -4,4 C 89 % 1008,0 hPa 0,0 mm 0,0 km/h (0 Bft) N-NO 22 0 min 0 UV-I 49 W/m 3,2 km/h (1 Bft)
10.02.2010 10:10 -4,3 C 89 % 1008,0 hPa 0,0 mm 0,0 km/h (0 Bft) N-NO 22 0 min 0 UV-I 58 W/m 6,4 km/h (2 Bft)
10.02.2010 10:20 -4,2 C 89 % 1008,1 hPa 0,0 mm 0,0 km/h (0 Bft) NW 315 0 min 0 UV-I 69 W/m 6,4 km/h (2 Bft)
10.02.2010 10:30 -4,2 C 88 % 1008,1 hPa 0,0 mm 1,6 km/h (1 Bft) W-NW 292 0 min 0 UV-I 69 W/m 4,8 km/h (1 Bft)
10.02.2010 10:40 -4,1 C 88 % 1008,2 hPa 0,0 mm 0,0 km/h (0 Bft) N-NW 337 0 min 0 UV-I 74 W/m 3,2 km/h (1 Bft)
10.02.2010 10:50 -4,0 C 88 % 1008,2 hPa 0,0 mm 1,6 km/h (1 Bft) N-NO 22 0 min 0 UV-I 84 W/m 8,0 km/h (2 Bft)
10.02.2010 11:00 -3,9 C 88 % 1008,3 hPa 0,0 mm 0,0 km/h (0 Bft) N 360 0 min 0 UV-I 88 W/m 4,8 km/h (1 Bft)
10.02.2010 11:10 -3,8 C 87 % 1008,4 hPa 0,0 mm 1,6 km/h (1 Bft) N 360 0 min 0 UV-I 95 W/m 6,4 km/h (2 Bft)
10.02.2010 11:20 -3,6 C 87 % 1008,5 hPa 0,0 mm 1,6 km/h (1 Bft) N-NO 22 0 min 0 UV-I 95 W/m 9,7 km/h (2 Bft)
10.02.2010 11:30 -3,4 C 86 % 1008,5 hPa 0,0 mm 0,0 km/h (0 Bft) N-NO 22 0 min 1 UV-I 102 W/m 3,2 km/h (1 Bft)
10.02.2010 11:40 -3,3 C 85 % 1008,5 hPa 0,0 mm 1,6 km/h (1 Bft) N-NO 22 0 min 1 UV-I 102 W/m 6,4 km/h (2 Bft)
10.02.2010 11:50 -3,2 C 84 % 1008,6 hPa 0,0 mm 1,6 km/h (1 Bft) N-NO 22 0 min 1 UV-I 102 W/m 8,0 km/h (2 Bft)
10.02.2010 12:00 -3,1 C 82 % 1008,5 hPa 0,3 mm 3,2 km/h (1 Bft) N 360 0 min 1 UV-I 107 W/m 9,7 km/h (2 Bft)
10.02.2010 12:10 -2,9 C 81 % 1008,6 hPa 0,0 mm 1,6 km/h (1 Bft) N-NO 22 0 min 1 UV-I 111 W/m 6,4 km/h (2 Bft)
10.02.2010 12:20 -2,8 C 80 % 1008,6 hPa 0,0 mm 1,6 km/h (1 Bft) N-NO 22 0 min 1 UV-I 116 W/m 8,0 km/h (2 Bft)
10.02.2010 12:30 -2,7 C 79 % 1008,6 hPa 0,3 mm 1,6 km/h (1 Bft) N 360 0 min 1 UV-I 107 W/m 8,0 km/h (2 Bft)
10.02.2010 12:40 -2,7 C 78 % 1008,6 hPa 0,0 mm 1,6 km/h (1 Bft) N 360 0 min 1 UV-I 137 W/m 4,8 km/h (1 Bft)
10.02.2010 12:50 -2,6 C 78 % 1008,6 hPa 0,0 mm 1,6 km/h (1 Bft) NO 45 0 min 1 UV-I 163 W/m 6,4 km/h (2 Bft)
10.02.2010 13:00 -2,4 C 76 % 1008,6 hPa 0,0 mm 1,6 km/h (1 Bft) NW 315 0 min 1 UV-I 123 W/m 8,0 km/h (2 Bft)
10.02.2010 13:10 -2,4 C 76 % 1008,6 hPa 0,0 mm 1,6 km/h (1 Bft) N 360 0 min 1 UV-I 86 W/m 9,7 km/h (2 Bft)
10.02.2010 13:20 -2,4 C 75 % 1008,7 hPa 0,0 mm 1,6 km/h (1 Bft) N 360 0 min 1 UV-I 83 W/m 6,4 km/h (2 Bft)
10.02.2010 13:30 -2,5 C 76 % 1008,7 hPa 0,0 mm 1,6 km/h (1 Bft) N 360 0 min 1 UV-I 77 W/m 8,0 km/h (2 Bft)
10.02.2010 13:40 -2,6 C 76 % 1008,7 hPa 0,0 mm 1,6 km/h (1 Bft) N-NO 22 0 min 1 UV-I 83 W/m 8,0 km/h (2 Bft)
10.02.2010 13:50 -2,6 C 75 % 1008,8 hPa 0,0 mm 1,6 km/h (1 Bft) N 360 0 min 1 UV-I 69 W/m 6,4 km/h (2 Bft)
10.02.2010 14:00 -2,7 C 75 % 1008,8 hPa 0,0 mm 1,6 km/h (1 Bft) N 360 0 min 1 UV-I 62 W/m 6,4 km/h (2 Bft)
10.02.2010 14:10 -2,7 C 76 % 1008,8 hPa 0,0 mm 1,6 km/h (1 Bft) N 360 0 min 1 UV-I 81 W/m 4,8 km/h (1 Bft)
10.02.2010 14:20 -2,8 C 77 % 1008,8 hPa 0,0 mm 1,6 km/h (1 Bft) N-NO 22 0 min 1 UV-I 81 W/m 11,3 km/h (2 Bft)
10.02.2010 14:30 -2,8 C 77 % 1008,7 hPa 0,0 mm 1,6 km/h (1 Bft) N-NO 22 0 min 1 UV-I 88 W/m 4,8 km/h (1 Bft)
10.02.2010 14:40 -2,7 C 76 % 1008,7 hPa 0,0 mm 1,6 km/h (1 Bft) N 360 0 min 0 UV-I 84 W/m 6,4 km/h (2 Bft)
10.02.2010 14:50 -2,8 C 77 % 1008,8 hPa 0,0 mm 1,6 km/h (1 Bft) N 360 0 min 0 UV-I 30 W/m 6,4 km/h (2 Bft)
10.02.2010 15:00 -2,9 C 77 % 1008,9 hPa 0,0 mm 3,2 km/h (1 Bft) N 360 0 min 0 UV-I 30 W/m 8,0 km/h (2 Bft)
10.02.2010 15:10 -3,2 C 78 % 1009,0 hPa 0,0 mm 4,8 km/h (1 Bft) N 360 0 min 0 UV-I 42 W/m 14,5 km/h (3 Bft)
10.02.2010 15:20 -3,3 C 78 % 1009,0 hPa 0,0 mm 3,2 km/h (1 Bft) N-NO 22 0 min 0 UV-I 42 W/m 14,5 km/h (3 Bft)
10.02.2010 15:30 -3,4 C 78 % 1009,0 hPa 0,0 mm 3,2 km/h (1 Bft) N-NO 22 0 min 0 UV-I 39 W/m 16,1 km/h (3 Bft)
10.02.2010 15:40 -3,6 C 78 % 1009,1 hPa 0,0 mm 4,8 km/h (1 Bft) N-NO 22 0 min 0 UV-I 40 W/m 14,5 km/h (3 Bft)
10.02.2010 15:50 -3,6 C 77 % 1009,1 hPa 0,0 mm 3,2 km/h (1 Bft) N-NO 22 0 min 0 UV-I 40 W/m 11,3 km/h (2 Bft)
10.02.2010 16:00 -3,7 C 76 % 1009,2 hPa 0,0 mm 2,8 km/h (1 Bft) NO 44 0 min 0 UV-I 26 W/m 6,4 km/h (2 Bft)
10.02.2010 16:10 -3,7 C 76 % 1009,3 hPa 0,0 mm 1,6 km/h (1 Bft) O-NO 67 0 min 0 UV-I 25 W/m 6,4 km/h (2 Bft)
10.02.2010 16:20 -3,7 C 76 % 1009,4 hPa 0,0 mm 3,2 km/h (1 Bft) N 360 0 min 0 UV-I 21 W/m 11,3 km/h (2 Bft)
10.02.2010 16:30 -3,7 C 77 % 1009,5 hPa 0,0 mm 1,6 km/h (1 Bft) N-NO 22 0 min 0 UV-I 21 W/m 6,4 km/h (2 Bft)
10.02.2010 16:40 -3,7 C 78 % 1009,7 hPa 0,0 mm 1,8 km/h (1 Bft) N 9 0 min 0 UV-I 14 W/m 6,4 km/h (2 Bft)
10.02.2010 16:50 -3,7 C 78 % 1009,7 hPa 0,0 mm 1,7 km/h (1 Bft) NO 45 0 min 0 UV-I 9 W/m 6,4 km/h (2 Bft)
10.02.2010 17:00 -3,8 C 78 % 1009,7 hPa 0,0 mm 0,8 km/h (0 Bft) NO 45 0 min 0 UV-I 6 W/m 4,8 km/h (1 Bft)
10.02.2010 17:10 -3,8 C 78 % 1009,8 hPa 0,0 mm 2,2 km/h (1 Bft) N-NO 24 0 min 0 UV-I 0 W/m 9,7 km/h (2 Bft)
10.02.2010 17:20 -3,9 C 78 % 1010,0 hPa 0,0 mm 1,7 km/h (1 Bft) N-NO 23 0 min 0 UV-I 0 W/m 6,4 km/h (2 Bft)
10.02.2010 17:30 -4,0 C 79 % 1010,1 hPa 0,0 mm 2,1 km/h (1 Bft) N-NO 13 0 min 0 UV-I 0 W/m 8,0 km/h (2 Bft)
10.02.2010 17:40 -4,1 C 79 % 1010,2 hPa 0,0 mm 1,5 km/h (1 Bft) N-NO 15 0 min 0 UV-I 0 W/m 4,8 km/h (1 Bft)
10.02.2010 17:50 -4,1 C 79 % 1010,3 hPa 0,0 mm 0,4 km/h (0 Bft) O-NO 74 0 min 0 UV-I 0 W/m 3,2 km/h (1 Bft)
10.02.2010 18:00 -4,2 C 79 % 1010,4 hPa 0,0 mm 1,6 km/h (1 Bft) NO 55 0 min 0 UV-I 0 W/m 6,4 km/h (2 Bft)
10.02.2010 18:10 -4,2 C 79 % 1010,6 hPa 0,0 mm 2,0 km/h (1 Bft) N 360 0 min 0 UV-I 0 W/m 9,7 km/h (2 Bft)
10.02.2010 18:20 -4,3 C 80 % 1010,7 hPa 0,0 mm 1,4 km/h (1 Bft) N 5 0 min 0 UV-I 0 W/m 6,4 km/h (2 Bft)
10.02.2010 18:30 -4,3 C 80 % 1010,7 hPa 0,0 mm 1,7 km/h (1 Bft) O-NO 63 0 min 0 UV-I 0 W/m 8,0 km/h (2 Bft)
10.02.2010 18:40 -4,3 C 80 % 1010,8 hPa 0,0 mm 1,1 km/h (1 Bft) N-NO 19 0 min 0 UV-I 0 W/m 6,4 km/h (2 Bft)
10.02.2010 18:50 -4,3 C 81 % 1010,9 hPa 0,0 mm 1,5 km/h (1 Bft) N-NO 24 0 min 0 UV-I 0 W/m 6,4 km/h (2 Bft)
10.02.2010 19:00 -4,3 C 81 % 1011,0 hPa 0,0 mm 0,6 km/h (0 Bft) N 351 0 min 0 UV-I 0 W/m 4,8 km/h (1 Bft)
10.02.2010 19:10 -4,4 C 81 % 1011,1 hPa 0,0 mm 1,9 km/h (1 Bft) N-NO 18 0 min 0 UV-I 0 W/m 6,4 km/h (2 Bft)
10.02.2010 19:20 -4,4 C 82 % 1011,1 hPa 0,0 mm 0,8 km/h (0 Bft) O-NO 60 0 min 0 UV-I 0 W/m 4,8 km/h (1 Bft)
10.02.2010 19:30 -4,4 C 82 % 1011,2 hPa 0,0 mm 1,8 km/h (1 Bft) NO 50 0 min 0 UV-I 0 W/m 8,0 km/h (2 Bft)
10.02.2010 19:40 -4,5 C 82 % 1011,1 hPa 0,0 mm 1,5 km/h (1 Bft) N-NO 19 0 min 0 UV-I 0 W/m 8,0 km/h (2 Bft)
10.02.2010 19:50 -4,5 C 82 % 1011,2 hPa 0,0 mm 1,1 km/h (1 Bft) N 5 0 min 0 UV-I 0 W/m 6,4 km/h (2 Bft)
10.02.2010 20:00 -4,6 C 82 % 1011,3 hPa 0,0 mm 3,9 km/h (1 Bft) O-NO 57 0 min 0 UV-I 0 W/m 11,3 km/h (2 Bft)
10.02.2010 20:10 -4,7 C 82 % 1011,5 hPa 0,0 mm 4,4 km/h (1 Bft) O-NO 65 0 min 0 UV-I 0 W/m 16,1 km/h (3 Bft)
10.02.2010 20:20 -4,8 C 81 % 1011,6 hPa 0,0 mm 3,9 km/h (1 Bft) O-NO 57 0 min 0 UV-I 0 W/m 11,3 km/h (2 Bft)
10.02.2010 20:30 -4,9 C 81 % 1011,5 hPa 0,0 mm 4,5 km/h (1 Bft) N-NO 32 0 min 0 UV-I 0 W/m 14,5 km/h (3 Bft)
10.02.2010 20:40 -4,9 C 81 % 1011,6 hPa 0,0 mm 4,0 km/h (1 Bft) N-NO 24 0 min 0 UV-I 0 W/m 11,3 km/h (2 Bft)
10.02.2010 20:50 -5,0 C 81 % 1011,7 hPa 0,0 mm 3,6 km/h (1 Bft) NO 38 0 min 0 UV-I 0 W/m 14,5 km/h (3 Bft)
10.02.2010 21:00 -5,0 C 81 % 1011,9 hPa 0,0 mm 2,2 km/h (1 Bft) O-NO 67 0 min 0 UV-I 0 W/m 8,0 km/h (2 Bft)
10.02.2010 21:10 -5,0 C 81 % 1011,9 hPa 0,0 mm 2,3 km/h (1 Bft) NO 41 0 min 0 UV-I 0 W/m 9,7 km/h (2 Bft)
10.02.2010 21:20 -5,1 C 81 % 1011,9 hPa 0,0 mm 2,4 km/h (1 Bft) O-NO 62 0 min 0 UV-I 0 W/m 9,7 km/h (2 Bft)
10.02.2010 23:30 -5,8 C 82 % 1012,1 hPa 0,0 mm 1,7 km/h (1 Bft) O 79 0 min 0 UV-I 0 W/m 4,8 km/h (1 Bft)
10.02.2010 23:40 -5,8 C 83 % 1012,1 hPa 0,0 mm 2,2 km/h (1 Bft) O-NO 78 0 min 0 UV-I 0 W/m 8,0 km/h (2 Bft)
10.02.2010 23:50 -5,7 C 83 % 1012,1 hPa 0,0 mm 1,6 km/h (1 Bft) O-NO 67 0 min 0 UV-I 0 W/m 9,7 km/h (2 Bft)
_ Min-Zeit 23:30 13:20 03:50 - 00:00 - - - - - 01:00
Minimum _ -5,8 C 75 % 1006,4 hPa - 0,0 km/h (0 Bft) - - - - - 0,0 km/h (0 Bft)
_ Max-Zeit 12:50 09:00 23:30 12:00 15:10 - - 00:00 12:20 12:50 15:30
Maximum _ -2,4 C 89 % 1012,1 hPa 0,3 mm 4,8 km/h
N (1 Bft)
- - 0 min 1 UV-I 163 W/m 16,1 km/h
N (3 Bft)
Durchschnitt _ -4,5 C 83 % 1008,7 hPa #0,5 mm 1,1 km/h (1 Bft) N-NO - #0 min. 1 UV-I 61 W/m 5,2 km/h (1 Bft)